Aviation Digital Data Service (ADDS)

Output produced by METARs form (2239 UTC 21 May 2022)
found at http://www.aviationweather.gov/metar/data/
 
LOWG 212220Z AUTO VRB01KT 9999 FEW050 BKN060 18/13 Q1017
TAF LOWG 211715Z 2118/2218 15006KT CAVOK TX26/2214Z TN12/2203Z 
     PROB30 
     TEMPO 2118/2120 9999 FEW050CB
       
LOWI 212220Z AUTO VRB01KT 9999 FEW080 16/12 Q1019
TAF LOWI 211715Z 2118/2218 09007KT 9999 FEW070 SCT090 TX28/2215Z TN11/2204Z 
     BECMG 2118/2120 27005KT 
     BECMG 2208/2210 10010KT
       
LOWK 212220Z AUTO VRB02KT 9999 FEW070 17/16 Q1017
TAF AMD LOWK 211817Z 2118/2218 VRB04KT 9999 FEW060 SCT090 TX26/2214Z TN13/2204Z 
     TEMPO 2118/2120 FEW060CB 
     TEMPO 2212/2218 FEW060CB
       
LOWL 212220Z AUTO 25005KT 9999 NSC 15/09 Q1019
TAF LOWL 211715Z 2118/2218 27012KT CAVOK TX24/2215Z TN12/2204Z 
     BECMG 2119/2121 27005KT 
     BECMG 2209/2211 28010KT 9999 FEW050
       
LOWS 212220Z AUTO VRB02KT 9999 NCD 13/09 Q1020
TAF LOWS 211715Z 2118/2218 29007KT 9999 FEW060 TX24/2213Z TN11/2203Z 
     BECMG 2119/2121 15006KT CAVOK 
     BECMG 2208/2210 32006KT 9999 FEW050 
     TEMPO 2212/2216 30012KT
       
LOWW 212220Z 31006KT CAVOK 16/08 Q1018 NOSIG
TAF LOWW 212015Z 2121/2303 34008KT CAVOK TX25/2214Z TN11/2303Z 
     BECMG 2218/2220 08004KT
       
TAF LOXT 211115Z 2112/2121 25013KT 9999 FEW050 SCT300 
     TEMPO 2112/2117 25018G28KT
       
LOAV 211800Z 32012KT 9999 FEW040 23/09
TAF LOAV 211125Z 2112/2121 29010KT 9999 FEW040 
     TEMPO 2112/2115 30020G35KT
       
LOAN 211900Z 33010KT 9999 FEW040
TAF LOAN 211125Z 2112/2121 29010KT 9999 FEW040 
     TEMPO 2112/2115 30020G30KT
       
LOXZ 212050Z VRB01KT 9999 FEW060 BKN290 15/09 Q1018
TAF LOXZ 211415Z 2115/2124 VRB03KT 9999 FEW060 BKN090 
     TEMPO 2115/2118 32010KT FEW050CB SCT070